sensor_id;sensor_type;location;lat;lon;timestamp;P1;durP1;ratioP1;P2;durP2;ratioP2
1585;SDS011;786;48.718;9.514;2022-12-18T00:02:25;37.15;;;20.98;;
1585;SDS011;786;48.718;9.514;2022-12-18T00:04:53;44.08;;;21.02;;
1585;SDS011;786;48.718;9.514;2022-12-18T00:07:19;41.30;;;21.13;;
1585;SDS011;786;48.718;9.514;2022-12-18T00:09:46;36.05;;;18.60;;
1585;SDS011;786;48.718;9.514;2022-12-18T00:12:13;43.33;;;22.90;;
1585;SDS011;786;48.718;9.514;2022-12-18T00:14:39;36.53;;;20.77;;
1585;SDS011;786;48.718;9.514;2022-12-18T00:17:09;38.15;;;20.42;;
1585;SDS011;786;48.718;9.514;2022-12-18T00:19:36;40.45;;;19.27;;
1585;SDS011;786;48.718;9.514;2022-12-18T00:22:03;42.05;;;20.25;;
1585;SDS011;786;48.718;9.514;2022-12-18T00:24:31;37.95;;;18.25;;
1585;SDS011;786;48.718;9.514;2022-12-18T00:26:57;39.83;;;21.48;;
1585;SDS011;786;48.718;9.514;2022-12-18T00:29:24;44.67;;;20.20;;
1585;SDS011;786;48.718;9.514;2022-12-18T00:31:50;49.13;;;22.73;;
1585;SDS011;786;48.718;9.514;2022-12-18T00:34:17;35.38;;;19.00;;
1585;SDS011;786;48.718;9.514;2022-12-18T00:36:43;44.60;;;20.33;;
1585;SDS011;786;48.718;9.514;2022-12-18T00:39:11;42.08;;;19.15;;
1585;SDS011;786;48.718;9.514;2022-12-18T00:41:37;40.63;;;19.27;;
1585;SDS011;786;48.718;9.514;2022-12-18T00:44:22;44.45;;;21.27;;
1585;SDS011;786;48.718;9.514;2022-12-18T00:46:48;47.42;;;22.42;;
1585;SDS011;786;48.718;9.514;2022-12-18T00:49:15;52.05;;;23.23;;
1585;SDS011;786;48.718;9.514;2022-12-18T00:51:42;44.95;;;20.58;;
1585;SDS011;786;48.718;9.514;2022-12-18T00:54:10;42.45;;;20.98;;
1585;SDS011;786;48.718;9.514;2022-12-18T00:56:37;47.20;;;23.05;;
1585;SDS011;786;48.718;9.514;2022-12-18T00:59:04;54.55;;;23.88;;
1585;SDS011;786;48.718;9.514;2022-12-18T01:01:30;47.53;;;23.48;;
1585;SDS011;786;48.718;9.514;2022-12-18T01:03:57;46.15;;;22.13;;
1585;SDS011;786;48.718;9.514;2022-12-18T01:06:24;56.03;;;22.92;;
1585;SDS011;786;48.718;9.514;2022-12-18T01:08:51;59.80;;;23.33;;
1585;SDS011;786;48.718;9.514;2022-12-18T01:11:20;47.92;;;21.73;;
1585;SDS011;786;48.718;9.514;2022-12-18T01:13:47;52.17;;;21.38;;
1585;SDS011;786;48.718;9.514;2022-12-18T01:16:14;48.00;;;21.50;;
1585;SDS011;786;48.718;9.514;2022-12-18T01:18:41;61.03;;;24.00;;
1585;SDS011;786;48.718;9.514;2022-12-18T01:21:08;48.25;;;21.35;;
1585;SDS011;786;48.718;9.514;2022-12-18T01:23:35;45.13;;;21.80;;
1585;SDS011;786;48.718;9.514;2022-12-18T01:26:06;54.35;;;23.20;;
1585;SDS011;786;48.718;9.514;2022-12-18T01:28:34;53.67;;;22.20;;
1585;SDS011;786;48.718;9.514;2022-12-18T01:31:13;54.03;;;22.13;;
1585;SDS011;786;48.718;9.514;2022-12-18T01:33:42;43.08;;;20.05;;
1585;SDS011;786;48.718;9.514;2022-12-18T01:36:13;48.58;;;20.88;;
1585;SDS011;786;48.718;9.514;2022-12-18T01:38:41;55.28;;;23.20;;
1585;SDS011;786;48.718;9.514;2022-12-18T01:41:07;53.22;;;23.65;;
1585;SDS011;786;48.718;9.514;2022-12-18T01:43:46;50.67;;;21.70;;
1585;SDS011;786;48.718;9.514;2022-12-18T01:46:15;44.88;;;21.05;;
1585;SDS011;786;48.718;9.514;2022-12-18T01:48:42;36.63;;;18.98;;
1585;SDS011;786;48.718;9.514;2022-12-18T01:51:10;42.60;;;21.38;;
1585;SDS011;786;48.718;9.514;2022-12-18T01:53:37;41.35;;;18.98;;
1585;SDS011;786;48.718;9.514;2022-12-18T01:56:05;41.60;;;20.73;;
1585;SDS011;786;48.718;9.514;2022-12-18T01:58:33;49.17;;;20.58;;
1585;SDS011;786;48.718;9.514;2022-12-18T02:01:04;38.58;;;18.85;;
1585;SDS011;786;48.718;9.514;2022-12-18T02:03:31;48.38;;;20.75;;
1585;SDS011;786;48.718;9.514;2022-12-18T02:05:59;48.80;;;20.70;;
1585;SDS011;786;48.718;9.514;2022-12-18T02:08:29;44.28;;;19.08;;
1585;SDS011;786;48.718;9.514;2022-12-18T02:11:02;42.35;;;22.27;;
1585;SDS011;786;48.718;9.514;2022-12-18T02:13:35;41.03;;;16.98;;
1585;SDS011;786;48.718;9.514;2022-12-18T02:16:07;41.30;;;19.25;;
1585;SDS011;786;48.718;9.514;2022-12-18T02:18:40;41.45;;;18.65;;
1585;SDS011;786;48.718;9.514;2022-12-18T02:21:12;40.45;;;18.83;;
1585;SDS011;786;48.718;9.514;2022-12-18T02:26:27;38.83;;;17.90;;
1585;SDS011;786;48.718;9.514;2022-12-18T02:28:58;42.80;;;20.75;;
1585;SDS011;786;48.718;9.514;2022-12-18T02:31:27;34.83;;;16.02;;
1585;SDS011;786;48.718;9.514;2022-12-18T02:33:56;40.17;;;19.27;;
1585;SDS011;786;48.718;9.514;2022-12-18T02:36:26;46.75;;;19.45;;
1585;SDS011;786;48.718;9.514;2022-12-18T02:38:54;41.63;;;18.52;;
1585;SDS011;786;48.718;9.514;2022-12-18T02:41:21;40.15;;;17.52;;
1585;SDS011;786;48.718;9.514;2022-12-18T02:43:48;47.13;;;20.30;;
1585;SDS011;786;48.718;9.514;2022-12-18T02:46:25;52.53;;;20.48;;
1585;SDS011;786;48.718;9.514;2022-12-18T02:48:54;52.50;;;20.35;;
1585;SDS011;786;48.718;9.514;2022-12-18T02:51:29;45.72;;;18.75;;
1585;SDS011;786;48.718;9.514;2022-12-18T02:54:00;52.33;;;20.95;;
1585;SDS011;786;48.718;9.514;2022-12-18T02:56:32;62.75;;;22.85;;
1585;SDS011;786;48.718;9.514;2022-12-18T02:59:02;53.38;;;23.55;;
1585;SDS011;786;48.718;9.514;2022-12-18T03:01:33;54.15;;;21.70;;
1585;SDS011;786;48.718;9.514;2022-12-18T03:04:02;49.78;;;22.73;;
1585;SDS011;786;48.718;9.514;2022-12-18T03:06:32;56.95;;;21.00;;
1585;SDS011;786;48.718;9.514;2022-12-18T03:09:01;51.90;;;23.45;;
1585;SDS011;786;48.718;9.514;2022-12-18T03:11:32;52.22;;;20.63;;
1585;SDS011;786;48.718;9.514;2022-12-18T03:14:17;41.72;;;20.45;;
1585;SDS011;786;48.718;9.514;2022-12-18T03:16:46;53.38;;;22.27;;
1585;SDS011;786;48.718;9.514;2022-12-18T03:19:15;51.13;;;22.83;;
1585;SDS011;786;48.718;9.514;2022-12-18T03:21:43;48.15;;;22.50;;
1585;SDS011;786;48.718;9.514;2022-12-18T03:24:12;50.17;;;23.58;;
1585;SDS011;786;48.718;9.514;2022-12-18T03:26:42;45.85;;;22.27;;
1585;SDS011;786;48.718;9.514;2022-12-18T03:29:12;52.65;;;20.40;;
1585;SDS011;786;48.718;9.514;2022-12-18T03:31:41;43.47;;;19.48;;
1585;SDS011;786;48.718;9.514;2022-12-18T03:36:40;45.00;;;19.42;;
1585;SDS011;786;48.718;9.514;2022-12-18T03:39:07;43.05;;;18.60;;
1585;SDS011;786;48.718;9.514;2022-12-18T03:41:34;50.40;;;21.77;;
1585;SDS011;786;48.718;9.514;2022-12-18T03:44:09;55.75;;;23.33;;
1585;SDS011;786;48.718;9.514;2022-12-18T03:46:38;56.95;;;22.63;;
1585;SDS011;786;48.718;9.514;2022-12-18T03:49:08;44.05;;;21.50;;
1585;SDS011;786;48.718;9.514;2022-12-18T03:51:37;48.63;;;23.65;;
1585;SDS011;786;48.718;9.514;2022-12-18T03:54:06;56.72;;;21.73;;
1585;SDS011;786;48.718;9.514;2022-12-18T03:56:35;44.67;;;19.15;;
1585;SDS011;786;48.718;9.514;2022-12-18T03:59:04;38.65;;;18.75;;
1585;SDS011;786;48.718;9.514;2022-12-18T04:01:33;42.67;;;18.73;;
1585;SDS011;786;48.718;9.514;2022-12-18T04:04:01;51.75;;;20.10;;
1585;SDS011;786;48.718;9.514;2022-12-18T04:06:28;41.90;;;20.92;;
1585;SDS011;786;48.718;9.514;2022-12-18T04:08:56;48.92;;;21.33;;
1585;SDS011;786;48.718;9.514;2022-12-18T04:11:22;43.53;;;18.90;;
1585;SDS011;786;48.718;9.514;2022-12-18T04:13:49;37.08;;;18.52;;
1585;SDS011;786;48.718;9.514;2022-12-18T04:16:15;48.13;;;21.08;;
1585;SDS011;786;48.718;9.514;2022-12-18T04:18:43;45.63;;;20.55;;
1585;SDS011;786;48.718;9.514;2022-12-18T04:21:09;37.67;;;16.55;;
1585;SDS011;786;48.718;9.514;2022-12-18T04:23:36;40.95;;;17.63;;
1585;SDS011;786;48.718;9.514;2022-12-18T04:26:02;43.35;;;19.17;;
1585;SDS011;786;48.718;9.514;2022-12-18T04:28:29;45.60;;;17.80;;
1585;SDS011;786;48.718;9.514;2022-12-18T04:30:55;42.65;;;17.50;;
1585;SDS011;786;48.718;9.514;2022-12-18T04:33:22;37.85;;;19.50;;
1585;SDS011;786;48.718;9.514;2022-12-18T04:35:49;38.60;;;17.30;;
1585;SDS011;786;48.718;9.514;2022-12-18T04:38:16;41.10;;;19.77;;
1585;SDS011;786;48.718;9.514;2022-12-18T04:40:42;43.70;;;17.63;;
1585;SDS011;786;48.718;9.514;2022-12-18T04:43:09;31.88;;;15.70;;
1585;SDS011;786;48.718;9.514;2022-12-18T04:45:35;43.45;;;17.33;;
1585;SDS011;786;48.718;9.514;2022-12-18T04:48:02;43.22;;;18.35;;
1585;SDS011;786;48.718;9.514;2022-12-18T04:50:29;46.75;;;19.17;;
1585;SDS011;786;48.718;9.514;2022-12-18T04:52:57;42.08;;;18.55;;
1585;SDS011;786;48.718;9.514;2022-12-18T04:55:23;35.97;;;18.77;;
1585;SDS011;786;48.718;9.514;2022-12-18T04:57:50;42.38;;;20.00;;
1585;SDS011;786;48.718;9.514;2022-12-18T05:00:16;34.35;;;16.85;;
1585;SDS011;786;48.718;9.514;2022-12-18T05:02:43;38.28;;;17.90;;
1585;SDS011;786;48.718;9.514;2022-12-18T05:05:09;39.85;;;17.48;;
1585;SDS011;786;48.718;9.514;2022-12-18T05:07:36;45.90;;;18.35;;
1585;SDS011;786;48.718;9.514;2022-12-18T05:10:04;40.65;;;18.45;;
1585;SDS011;786;48.718;9.514;2022-12-18T05:12:31;42.38;;;17.52;;
1585;SDS011;786;48.718;9.514;2022-12-18T05:14:58;38.00;;;17.35;;
1585;SDS011;786;48.718;9.514;2022-12-18T05:17:25;44.58;;;19.33;;
1585;SDS011;786;48.718;9.514;2022-12-18T05:19:51;40.75;;;17.10;;
1585;SDS011;786;48.718;9.514;2022-12-18T05:22:17;42.55;;;19.25;;
1585;SDS011;786;48.718;9.514;2022-12-18T05:24:44;39.58;;;19.80;;
1585;SDS011;786;48.718;9.514;2022-12-18T05:27:11;36.72;;;15.88;;
1585;SDS011;786;48.718;9.514;2022-12-18T05:29:38;41.63;;;17.73;;
1585;SDS011;786;48.718;9.514;2022-12-18T05:32:04;37.30;;;16.80;;
1585;SDS011;786;48.718;9.514;2022-12-18T05:34:31;33.20;;;16.15;;
1585;SDS011;786;48.718;9.514;2022-12-18T05:36:58;33.10;;;16.40;;
1585;SDS011;786;48.718;9.514;2022-12-18T05:39:24;34.53;;;16.02;;
1585;SDS011;786;48.718;9.514;2022-12-18T05:41:51;44.20;;;19.77;;
1585;SDS011;786;48.718;9.514;2022-12-18T05:44:19;41.70;;;16.10;;
1585;SDS011;786;48.718;9.514;2022-12-18T05:46:45;30.90;;;17.95;;
1585;SDS011;786;48.718;9.514;2022-12-18T05:49:11;37.72;;;18.98;;
1585;SDS011;786;48.718;9.514;2022-12-18T05:51:38;34.13;;;16.98;;
1585;SDS011;786;48.718;9.514;2022-12-18T05:54:04;36.60;;;17.40;;
1585;SDS011;786;48.718;9.514;2022-12-18T05:56:31;38.15;;;16.83;;
1585;SDS011;786;48.718;9.514;2022-12-18T05:58:57;40.25;;;18.55;;
1585;SDS011;786;48.718;9.514;2022-12-18T06:01:26;31.13;;;18.77;;
1585;SDS011;786;48.718;9.514;2022-12-18T06:03:52;37.90;;;22.40;;
1585;SDS011;786;48.718;9.514;2022-12-18T06:06:20;39.83;;;17.25;;
1585;SDS011;786;48.718;9.514;2022-12-18T06:08:47;33.15;;;16.73;;
1585;SDS011;786;48.718;9.514;2022-12-18T06:11:16;36.05;;;17.27;;
1585;SDS011;786;48.718;9.514;2022-12-18T06:13:43;31.60;;;15.13;;
1585;SDS011;786;48.718;9.514;2022-12-18T06:16:10;36.13;;;19.20;;
1585;SDS011;786;48.718;9.514;2022-12-18T06:18:37;40.20;;;17.48;;
1585;SDS011;786;48.718;9.514;2022-12-18T06:21:04;37.90;;;17.08;;
1585;SDS011;786;48.718;9.514;2022-12-18T06:23:31;38.30;;;15.65;;
1585;SDS011;786;48.718;9.514;2022-12-18T06:25:58;41.10;;;17.17;;
1585;SDS011;786;48.718;9.514;2022-12-18T06:28:25;34.42;;;17.65;;
1585;SDS011;786;48.718;9.514;2022-12-18T06:30:51;39.33;;;16.33;;
1585;SDS011;786;48.718;9.514;2022-12-18T06:33:18;41.50;;;18.15;;
1585;SDS011;786;48.718;9.514;2022-12-18T06:35:45;43.67;;;19.17;;
1585;SDS011;786;48.718;9.514;2022-12-18T06:38:12;37.90;;;15.02;;
1585;SDS011;786;48.718;9.514;2022-12-18T06:40:38;33.15;;;15.50;;
1585;SDS011;786;48.718;9.514;2022-12-18T06:43:05;31.92;;;17.08;;
1585;SDS011;786;48.718;9.514;2022-12-18T06:45:32;37.60;;;18.65;;
1585;SDS011;786;48.718;9.514;2022-12-18T06:47:58;37.58;;;17.35;;
1585;SDS011;786;48.718;9.514;2022-12-18T06:50:24;34.65;;;16.90;;
1585;SDS011;786;48.718;9.514;2022-12-18T06:52:52;28.55;;;15.00;;
1585;SDS011;786;48.718;9.514;2022-12-18T06:55:20;29.45;;;14.13;;
1585;SDS011;786;48.718;9.514;2022-12-18T06:57:46;25.92;;;16.38;;
1585;SDS011;786;48.718;9.514;2022-12-18T07:00:13;33.80;;;17.23;;
1585;SDS011;786;48.718;9.514;2022-12-18T07:02:40;34.53;;;15.55;;
1585;SDS011;786;48.718;9.514;2022-12-18T07:05:06;38.65;;;19.73;;
1585;SDS011;786;48.718;9.514;2022-12-18T07:07:33;30.35;;;16.60;;
1585;SDS011;786;48.718;9.514;2022-12-18T07:10:02;39.17;;;19.23;;
1585;SDS011;786;48.718;9.514;2022-12-18T07:12:29;26.45;;;15.55;;
1585;SDS011;786;48.718;9.514;2022-12-18T07:14:55;29.75;;;16.50;;
1585;SDS011;786;48.718;9.514;2022-12-18T07:17:22;30.08;;;13.80;;
1585;SDS011;786;48.718;9.514;2022-12-18T07:19:48;26.48;;;14.88;;
1585;SDS011;786;48.718;9.514;2022-12-18T07:24:41;14.48;;;10.55;;
1585;SDS011;786;48.718;9.514;2022-12-18T07:27:09;26.65;;;12.65;;
1585;SDS011;786;48.718;9.514;2022-12-18T07:29:35;22.70;;;12.85;;
1585;SDS011;786;48.718;9.514;2022-12-18T07:32:02;38.92;;;19.10;;
1585;SDS011;786;48.718;9.514;2022-12-18T07:34:28;36.83;;;19.65;;
1585;SDS011;786;48.718;9.514;2022-12-18T07:36:54;38.05;;;18.23;;
1585;SDS011;786;48.718;9.514;2022-12-18T07:39:21;45.45;;;21.45;;
1585;SDS011;786;48.718;9.514;2022-12-18T07:41:47;45.85;;;20.08;;
1585;SDS011;786;48.718;9.514;2022-12-18T07:44:35;39.22;;;19.30;;
1585;SDS011;786;48.718;9.514;2022-12-18T07:47:02;38.63;;;17.20;;
1585;SDS011;786;48.718;9.514;2022-12-18T07:49:28;44.83;;;19.10;;
1585;SDS011;786;48.718;9.514;2022-12-18T07:51:55;49.45;;;23.50;;
1585;SDS011;786;48.718;9.514;2022-12-18T07:54:22;39.72;;;20.33;;
1585;SDS011;786;48.718;9.514;2022-12-18T07:56:48;44.45;;;21.15;;
1585;SDS011;786;48.718;9.514;2022-12-18T07:59:15;44.33;;;23.08;;
1585;SDS011;786;48.718;9.514;2022-12-18T08:01:43;38.45;;;21.92;;
1585;SDS011;786;48.718;9.514;2022-12-18T08:04:09;41.92;;;19.63;;
1585;SDS011;786;48.718;9.514;2022-12-18T08:06:36;40.72;;;22.08;;
1585;SDS011;786;48.718;9.514;2022-12-18T08:09:02;50.40;;;23.30;;
1585;SDS011;786;48.718;9.514;2022-12-18T08:11:29;44.88;;;22.67;;
1585;SDS011;786;48.718;9.514;2022-12-18T08:13:55;38.90;;;20.05;;
1585;SDS011;786;48.718;9.514;2022-12-18T08:16:23;35.50;;;19.33;;
1585;SDS011;786;48.718;9.514;2022-12-18T08:18:52;47.88;;;20.77;;
1585;SDS011;786;48.718;9.514;2022-12-18T08:21:19;48.95;;;20.45;;
1585;SDS011;786;48.718;9.514;2022-12-18T08:23:48;41.28;;;21.88;;
1585;SDS011;786;48.718;9.514;2022-12-18T08:26:14;42.53;;;23.05;;
1585;SDS011;786;48.718;9.514;2022-12-18T08:28:41;64.85;;;24.73;;
1585;SDS011;786;48.718;9.514;2022-12-18T08:31:08;51.05;;;26.10;;
1585;SDS011;786;48.718;9.514;2022-12-18T08:33:35;44.10;;;21.58;;
1585;SDS011;786;48.718;9.514;2022-12-18T08:36:05;54.90;;;26.65;;
1585;SDS011;786;48.718;9.514;2022-12-18T08:38:32;49.13;;;24.95;;
1585;SDS011;786;48.718;9.514;2022-12-18T08:40:58;51.35;;;28.00;;
1585;SDS011;786;48.718;9.514;2022-12-18T08:43:25;53.00;;;28.30;;
1585;SDS011;786;48.718;9.514;2022-12-18T08:46:09;45.97;;;27.08;;
1585;SDS011;786;48.718;9.514;2022-12-18T08:48:36;51.38;;;29.45;;
1585;SDS011;786;48.718;9.514;2022-12-18T08:51:04;45.95;;;29.02;;
1585;SDS011;786;48.718;9.514;2022-12-18T08:53:31;54.50;;;30.20;;
1585;SDS011;786;48.718;9.514;2022-12-18T08:55:57;41.45;;;26.13;;
1585;SDS011;786;48.718;9.514;2022-12-18T08:58:23;49.25;;;30.40;;
1585;SDS011;786;48.718;9.514;2022-12-18T09:00:50;47.88;;;29.15;;
1585;SDS011;786;48.718;9.514;2022-12-18T09:03:17;47.92;;;29.65;;
1585;SDS011;786;48.718;9.514;2022-12-18T09:05:45;47.83;;;31.50;;
1585;SDS011;786;48.718;9.514;2022-12-18T09:08:13;41.67;;;29.35;;
1585;SDS011;786;48.718;9.514;2022-12-18T09:10:41;44.55;;;28.65;;
1585;SDS011;786;48.718;9.514;2022-12-18T09:13:08;42.63;;;29.98;;
1585;SDS011;786;48.718;9.514;2022-12-18T09:15:39;44.85;;;30.73;;
1585;SDS011;786;48.718;9.514;2022-12-18T09:18:06;46.78;;;32.83;;
1585;SDS011;786;48.718;9.514;2022-12-18T09:20:34;53.45;;;34.97;;
1585;SDS011;786;48.718;9.514;2022-12-18T09:23:01;51.00;;;35.25;;
1585;SDS011;786;48.718;9.514;2022-12-18T09:25:30;48.63;;;32.80;;
1585;SDS011;786;48.718;9.514;2022-12-18T09:27:58;42.58;;;31.02;;
1585;SDS011;786;48.718;9.514;2022-12-18T09:30:24;46.15;;;34.53;;
1585;SDS011;786;48.718;9.514;2022-12-18T09:32:51;41.45;;;30.02;;
1585;SDS011;786;48.718;9.514;2022-12-18T09:35:19;43.40;;;29.48;;
1585;SDS011;786;48.718;9.514;2022-12-18T09:37:45;43.45;;;31.50;;
1585;SDS011;786;48.718;9.514;2022-12-18T09:40:12;43.35;;;32.45;;
1585;SDS011;786;48.718;9.514;2022-12-18T09:42:41;40.92;;;27.73;;
1585;SDS011;786;48.718;9.514;2022-12-18T09:45:11;38.33;;;28.75;;
1585;SDS011;786;48.718;9.514;2022-12-18T09:47:39;38.60;;;31.20;;
1585;SDS011;786;48.718;9.514;2022-12-18T09:50:15;39.53;;;29.38;;
1585;SDS011;786;48.718;9.514;2022-12-18T09:52:47;39.92;;;29.92;;
1585;SDS011;786;48.718;9.514;2022-12-18T09:55:17;39.55;;;28.42;;
1585;SDS011;786;48.718;9.514;2022-12-18T09:57:51;39.88;;;28.23;;
1585;SDS011;786;48.718;9.514;2022-12-18T10:00:20;40.10;;;30.00;;
1585;SDS011;786;48.718;9.514;2022-12-18T10:02:48;43.67;;;30.42;;
1585;SDS011;786;48.718;9.514;2022-12-18T10:05:16;35.40;;;27.67;;
1585;SDS011;786;48.718;9.514;2022-12-18T10:07:47;43.28;;;32.50;;
1585;SDS011;786;48.718;9.514;2022-12-18T10:10:23;42.42;;;32.22;;
1585;SDS011;786;48.718;9.514;2022-12-18T10:12:56;46.20;;;32.55;;
1585;SDS011;786;48.718;9.514;2022-12-18T10:15:29;41.33;;;30.90;;
1585;SDS011;786;48.718;9.514;2022-12-18T10:18:00;37.15;;;29.48;;
1585;SDS011;786;48.718;9.514;2022-12-18T10:20:33;42.33;;;30.50;;
1585;SDS011;786;48.718;9.514;2022-12-18T10:23:01;39.20;;;29.23;;
1585;SDS011;786;48.718;9.514;2022-12-18T10:25:31;39.67;;;30.33;;
1585;SDS011;786;48.718;9.514;2022-12-18T10:28:09;40.85;;;29.95;;
1585;SDS011;786;48.718;9.514;2022-12-18T10:30:37;43.10;;;31.50;;
1585;SDS011;786;48.718;9.514;2022-12-18T10:33:04;37.38;;;29.30;;
1585;SDS011;786;48.718;9.514;2022-12-18T10:35:31;37.78;;;30.48;;
1585;SDS011;786;48.718;9.514;2022-12-18T10:38:01;34.47;;;28.70;;
1585;SDS011;786;48.718;9.514;2022-12-18T10:40:30;42.88;;;34.00;;
1585;SDS011;786;48.718;9.514;2022-12-18T10:43:09;44.03;;;33.63;;
1585;SDS011;786;48.718;9.514;2022-12-18T10:45:39;43.20;;;32.83;;
1585;SDS011;786;48.718;9.514;2022-12-18T10:48:17;39.50;;;31.90;;
1585;SDS011;786;48.718;9.514;2022-12-18T10:50:46;39.08;;;30.30;;
1585;SDS011;786;48.718;9.514;2022-12-18T10:53:17;39.17;;;33.60;;
1585;SDS011;786;48.718;9.514;2022-12-18T10:55:45;46.55;;;38.80;;
1585;SDS011;786;48.718;9.514;2022-12-18T10:58:19;65.35;;;47.80;;
1585;SDS011;786;48.718;9.514;2022-12-18T11:01:01;56.08;;;42.72;;
1585;SDS011;786;48.718;9.514;2022-12-18T11:03:33;46.42;;;39.50;;
1585;SDS011;786;48.718;9.514;2022-12-18T11:06:02;44.20;;;33.13;;
1585;SDS011;786;48.718;9.514;2022-12-18T11:08:30;48.22;;;37.08;;
1585;SDS011;786;48.718;9.514;2022-12-18T11:10:56;45.53;;;33.47;;
1585;SDS011;786;48.718;9.514;2022-12-18T11:13:25;43.00;;;32.17;;
1585;SDS011;786;48.718;9.514;2022-12-18T11:15:52;40.80;;;31.27;;
1585;SDS011;786;48.718;9.514;2022-12-18T11:18:20;43.80;;;32.42;;
1585;SDS011;786;48.718;9.514;2022-12-18T11:20:50;46.25;;;33.53;;
1585;SDS011;786;48.718;9.514;2022-12-18T11:23:18;42.22;;;30.67;;
1585;SDS011;786;48.718;9.514;2022-12-18T11:25:50;37.67;;;26.60;;
1585;SDS011;786;48.718;9.514;2022-12-18T11:28:27;38.35;;;28.35;;
1585;SDS011;786;48.718;9.514;2022-12-18T11:33:36;31.90;;;23.08;;
1585;SDS011;786;48.718;9.514;2022-12-18T11:36:04;29.10;;;19.10;;
1585;SDS011;786;48.718;9.514;2022-12-18T11:38:35;30.85;;;19.83;;
1585;SDS011;786;48.718;9.514;2022-12-18T11:41:03;31.05;;;19.00;;
1585;SDS011;786;48.718;9.514;2022-12-18T11:43:33;29.13;;;18.38;;
1585;SDS011;786;48.718;9.514;2022-12-18T11:46:04;25.80;;;15.82;;
1585;SDS011;786;48.718;9.514;2022-12-18T11:48:32;26.38;;;16.15;;
1585;SDS011;786;48.718;9.514;2022-12-18T11:51:01;27.40;;;16.10;;
1585;SDS011;786;48.718;9.514;2022-12-18T11:53:29;23.95;;;15.55;;
1585;SDS011;786;48.718;9.514;2022-12-18T11:55:58;26.10;;;15.80;;
1585;SDS011;786;48.718;9.514;2022-12-18T11:58:37;31.35;;;16.85;;
1585;SDS011;786;48.718;9.514;2022-12-18T12:01:14;29.67;;;15.07;;
1585;SDS011;786;48.718;9.514;2022-12-18T12:06:39;30.60;;;17.27;;
1585;SDS011;786;48.718;9.514;2022-12-18T12:09:13;26.65;;;16.23;;
1585;SDS011;786;48.718;9.514;2022-12-18T12:11:46;22.35;;;12.48;;
1585;SDS011;786;48.718;9.514;2022-12-18T12:14:22;32.78;;;18.83;;
1585;SDS011;786;48.718;9.514;2022-12-18T12:19:25;23.52;;;13.30;;
1585;SDS011;786;48.718;9.514;2022-12-18T12:22:00;19.17;;;10.95;;
1585;SDS011;786;48.718;9.514;2022-12-18T12:24:34;22.10;;;12.98;;
1585;SDS011;786;48.718;9.514;2022-12-18T12:27:10;22.42;;;13.32;;
1585;SDS011;786;48.718;9.514;2022-12-18T12:29:48;28.30;;;14.18;;
1585;SDS011;786;48.718;9.514;2022-12-18T12:32:22;24.00;;;13.95;;
1585;SDS011;786;48.718;9.514;2022-12-18T12:34:59;24.48;;;12.85;;
1585;SDS011;786;48.718;9.514;2022-12-18T12:37:34;28.83;;;15.68;;
1585;SDS011;786;48.718;9.514;2022-12-18T12:40:10;23.02;;;12.48;;
1585;SDS011;786;48.718;9.514;2022-12-18T12:42:39;30.35;;;16.42;;
1585;SDS011;786;48.718;9.514;2022-12-18T12:45:28;20.83;;;12.57;;
1585;SDS011;786;48.718;9.514;2022-12-18T12:47:57;31.33;;;18.13;;
1585;SDS011;786;48.718;9.514;2022-12-18T12:50:24;30.20;;;16.55;;
1585;SDS011;786;48.718;9.514;2022-12-18T12:52:51;29.05;;;14.85;;
1585;SDS011;786;48.718;9.514;2022-12-18T12:55:19;31.45;;;16.75;;
1585;SDS011;786;48.718;9.514;2022-12-18T12:57:48;23.98;;;12.85;;
1585;SDS011;786;48.718;9.514;2022-12-18T13:00:20;25.70;;;13.48;;
1585;SDS011;786;48.718;9.514;2022-12-18T13:02:50;28.55;;;14.50;;
1585;SDS011;786;48.718;9.514;2022-12-18T13:05:22;28.70;;;14.73;;
1585;SDS011;786;48.718;9.514;2022-12-18T13:07:52;31.00;;;17.30;;
1585;SDS011;786;48.718;9.514;2022-12-18T13:10:31;27.23;;;13.52;;
1585;SDS011;786;48.718;9.514;2022-12-18T13:13:00;29.15;;;15.15;;
1585;SDS011;786;48.718;9.514;2022-12-18T13:15:29;29.55;;;14.88;;
1585;SDS011;786;48.718;9.514;2022-12-18T13:20:48;26.00;;;13.93;;
1585;SDS011;786;48.718;9.514;2022-12-18T13:23:20;24.13;;;12.52;;
1585;SDS011;786;48.718;9.514;2022-12-18T13:25:53;25.80;;;14.98;;
1585;SDS011;786;48.718;9.514;2022-12-18T13:28:21;29.48;;;13.90;;
1585;SDS011;786;48.718;9.514;2022-12-18T13:30:50;25.90;;;13.55;;
1585;SDS011;786;48.718;9.514;2022-12-18T13:33:38;32.13;;;16.23;;
1585;SDS011;786;48.718;9.514;2022-12-18T13:36:12;28.23;;;13.90;;
1585;SDS011;786;48.718;9.514;2022-12-18T13:38:41;25.17;;;12.48;;
1585;SDS011;786;48.718;9.514;2022-12-18T13:41:24;28.23;;;13.45;;
1585;SDS011;786;48.718;9.514;2022-12-18T13:43:53;33.28;;;15.93;;
1585;SDS011;786;48.718;9.514;2022-12-18T13:46:23;32.45;;;15.15;;
1585;SDS011;786;48.718;9.514;2022-12-18T13:48:54;37.83;;;15.63;;
1585;SDS011;786;48.718;9.514;2022-12-18T13:51:23;31.67;;;15.40;;
1585;SDS011;786;48.718;9.514;2022-12-18T13:53:51;29.88;;;15.60;;
1585;SDS011;786;48.718;9.514;2022-12-18T13:56:21;29.80;;;14.80;;
1585;SDS011;786;48.718;9.514;2022-12-18T13:59:03;29.85;;;14.13;;
1585;SDS011;786;48.718;9.514;2022-12-18T14:01:32;28.45;;;13.68;;
1585;SDS011;786;48.718;9.514;2022-12-18T14:04:16;31.38;;;15.48;;
1585;SDS011;786;48.718;9.514;2022-12-18T14:06:46;31.38;;;17.73;;
1585;SDS011;786;48.718;9.514;2022-12-18T14:09:13;30.55;;;15.50;;
1585;SDS011;786;48.718;9.514;2022-12-18T14:11:45;29.67;;;15.23;;
1585;SDS011;786;48.718;9.514;2022-12-18T14:14:13;25.58;;;12.32;;
1585;SDS011;786;48.718;9.514;2022-12-18T14:16:40;34.40;;;17.17;;
1585;SDS011;786;48.718;9.514;2022-12-18T14:19:08;31.08;;;14.75;;
1585;SDS011;786;48.718;9.514;2022-12-18T14:21:38;33.80;;;17.20;;
1585;SDS011;786;48.718;9.514;2022-12-18T14:24:05;34.47;;;14.70;;
1585;SDS011;786;48.718;9.514;2022-12-18T14:26:39;29.95;;;15.35;;
1585;SDS011;786;48.718;9.514;2022-12-18T14:29:18;31.17;;;15.98;;
1585;SDS011;786;48.718;9.514;2022-12-18T14:32:05;32.70;;;16.55;;
1585;SDS011;786;48.718;9.514;2022-12-18T14:37:00;30.40;;;13.95;;
1585;SDS011;786;48.718;9.514;2022-12-18T14:39:26;29.90;;;13.68;;
1585;SDS011;786;48.718;9.514;2022-12-18T14:41:53;26.40;;;13.60;;
1585;SDS011;786;48.718;9.514;2022-12-18T14:44:19;33.80;;;16.48;;
1585;SDS011;786;48.718;9.514;2022-12-18T14:46:47;27.17;;;13.82;;
1585;SDS011;786;48.718;9.514;2022-12-18T14:49:19;26.40;;;12.73;;
1585;SDS011;786;48.718;9.514;2022-12-18T14:51:51;28.20;;;14.10;;
1585;SDS011;786;48.718;9.514;2022-12-18T14:54:19;31.77;;;15.13;;
1585;SDS011;786;48.718;9.514;2022-12-18T14:56:47;30.38;;;15.43;;
1585;SDS011;786;48.718;9.514;2022-12-18T14:59:15;24.98;;;14.27;;
1585;SDS011;786;48.718;9.514;2022-12-18T15:01:44;34.00;;;16.42;;
1585;SDS011;786;48.718;9.514;2022-12-18T15:04:23;45.17;;;27.98;;
1585;SDS011;786;48.718;9.514;2022-12-18T15:07:04;32.72;;;16.50;;
1585;SDS011;786;48.718;9.514;2022-12-18T15:09:32;31.38;;;16.40;;
1585;SDS011;786;48.718;9.514;2022-12-18T15:11:59;29.52;;;13.77;;
1585;SDS011;786;48.718;9.514;2022-12-18T15:14:31;33.00;;;18.08;;
1585;SDS011;786;48.718;9.514;2022-12-18T15:16:59;28.67;;;15.13;;
1585;SDS011;786;48.718;9.514;2022-12-18T15:19:31;25.83;;;14.23;;
1585;SDS011;786;48.718;9.514;2022-12-18T15:22:00;28.98;;;15.38;;
1585;SDS011;786;48.718;9.514;2022-12-18T15:24:29;32.85;;;20.25;;
1585;SDS011;786;48.718;9.514;2022-12-18T15:26:57;37.78;;;17.52;;
1585;SDS011;786;48.718;9.514;2022-12-18T15:29:23;35.30;;;15.95;;
1585;SDS011;786;48.718;9.514;2022-12-18T15:32:03;29.60;;;14.30;;
1585;SDS011;786;48.718;9.514;2022-12-18T15:34:31;31.42;;;14.82;;